Flight Track Log - Related Links

Times and Time Zones

All times are in EDT time to prevent confusion due to time zone crossing. See the ASH3770 flight status page for this flight to view local times or setup timezone preferences in your user account.

Time Position Orientation Groundspeed Altitude Reporting Facility
EDT Latitude Longitude Course Direction KTS MPH feet Rate Location/Type
Sat 02:34:56 PM 42.0167 -87.9000 90° East 211 243 3,200  Level Chicago TRACON
Sat 02:36:02 PM 42.0833 -87.8500 29° Northeast 240 276 6,100 2,627 Climbing Chicago TRACON
Sat 02:37:00 PM 42.0754 -87.2020 78° East  Level FlightAware Approximate
Sat 02:38:00 PM 42.1013 -87.0258 77° East  Level FlightAware Approximate
Sat 02:38:01 PM 42.1117 -87.6619 78° East 305 351 11,300  Level Chicago Center
Sat 02:39:00 PM 42.1168 -86.8481 90° East  Level FlightAware Approximate
Sat 02:39:03 PM 42.1131 -87.5419 89° East 316 364 13,900  Level Chicago Center
Sat 02:40:00 PM 42.1168 -86.6967 90° East  Level FlightAware Approximate
Sat 02:40:05 PM 42.1231 -87.4089 84° East 351 404 15,300  Level Chicago Center
Sat 02:41:06 PM 42.1347 -87.2600 84° East 392 451 17,200 1,659 Climbing Chicago Center
Sat 02:42:08 PM 42.1508 -87.0739 83° East 417 480 18,700 1,694 Climbing Chicago Center
Sat 02:43:10 PM 42.1711 -86.9108 80° East 441 507 20,700 1,645 Climbing Chicago Center
Sat 02:44:12 PM 42.2019 -86.7483 76° East 446 513 22,100 1,452 Climbing Chicago Center
Sat 02:45:14 PM 42.2158 -86.5831 83° East 467 537 23,700 1,512 Climbing Chicago Center
Sat 02:46:15 PM 42.2292 -86.4025 84° East 480 552 25,200 1,415 Climbing Chicago Center
Sat 02:47:17 PM 42.2417 -86.2211 85° East 485 558 26,600 1,355 Climbing Chicago Center
Sat 02:48:19 PM 42.2561 -85.9967 85° East 499 574 28,000 1,171 Climbing Chicago Center
Sat 02:49:20 PM 42.2669 -85.8244 85° East 505 581 29,000 1,366 Climbing Chicago Center
Sat 02:50:22 PM 42.2797 -85.6342 85° East 512 589 30,800 968 Climbing Chicago Center
Sat 02:51:24 PM 42.2908 -85.4439 85° East 512 589 31,000 112 Climbing Chicago Center
Sat 02:52:09 PM 42.3044 -85.2639 84° East 521 600 31,000 286 Level Cleveland Center
Sat 02:53:09 PM 42.3161 -85.0739 85° East 515 593 31,500 1,000 Climbing Cleveland Center
Sat 02:54:09 PM 42.3256 -84.8861 86° East 509 586 33,000 750 Climbing Cleveland Center
Sat 02:55:09 PM 42.3344 -84.6986 86° East 502 578 33,000  Level Cleveland Center
Sat 02:56:09 PM 42.3389 -84.5078 88° East 502 578 33,000  Level Cleveland Center
Sat 02:57:09 PM 42.3494 -84.3172 86° East 502 578 33,000  Level Cleveland Center
Sat 02:58:09 PM 42.3597 -84.1239 86° East 502 578 33,000  Level Cleveland Center
Sat 02:59:09 PM 42.3675 -83.9333 87° East 507 583 33,000  Level Cleveland Center
Sat 03:00:09 PM 42.3772 -83.7425 86° East 507 583 33,000  Level Cleveland Center
Sat 03:01:09 PM 42.3864 -83.5519 86° East 507 583 33,000  Level Cleveland Center
Sat 03:02:09 PM 42.3933 -83.3639 87° East 513 590 33,000  Level Cleveland Center
Sat 03:03:09 PM 42.3997 -83.1700 87° East 513 590 33,000  Level Cleveland Center
Sat 03:04:09 PM 42.4081 -82.9764 87° East 513 590 33,000  Level Cleveland Center
Sat 03:05:09 PM 42.4161 -82.7853 87° East 513 590 33,000  Level Cleveland Center
Sat 03:06:09 PM 42.4214 -82.6167 88° East 513 590 33,000  Level Cleveland Center
Sat 03:07:09 PM 42.4289 -82.4256 87° East 513 590 33,000  Level Cleveland Center
Sat 03:08:09 PM 42.4358 -82.2344 87° East 513 590 33,000  Level Cleveland Center
Sat 03:09:09 PM 42.4406 -82.0433 88° East 507 583 33,000 -350 Level Cleveland Center
Sat 03:10:09 PM 42.4469 -81.8550 87° East 502 578 32,300 -1,100 Descending Cleveland Center
Sat 03:11:09 PM 42.4531 -81.6497 88° East 497 572 30,800 -1,550 Descending Cleveland Center
Sat 03:12:09 PM 42.4569 -81.4611 88° East 497 572 29,200 -1,550 Descending Cleveland Center
Sat 03:13:09 PM 42.4622 -81.2700 88° East 497 572 27,700 -1,100 Descending Cleveland Center
Sat 03:14:09 PM 42.4675 -81.0786 88° East 502 578 27,000 -350 Descending Cleveland Center
Sat 03:15:09 PM 42.4703 -80.8872 89° East 507 583 27,000 -100 Level Cleveland Center
Sat 03:16:09 PM 42.4747 -80.6986 88° East 502 578 26,800 -600 Descending Cleveland Center
Sat 03:17:09 PM 42.4747 -80.5072 90° East 507 583 25,800 -1,050 Descending Cleveland Center
Sat 03:18:09 PM 42.4786 -80.3100 88° East 514 592 24,700 -900 Descending Cleveland Center
Sat 03:19:09 PM 42.4803 -80.1469 89° East 504 580 24,000 -450 Descending Cleveland Center
Sat 03:20:09 PM 42.4878 -79.9469 87° East 486 559 23,800 -750 Descending Cleveland Center
Sat 03:21:09 PM 42.4928 -79.7639 88° East 481 554 22,500 -1,250 Descending Cleveland Center
Sat 03:22:09 PM 42.4933 -79.5836 90° East 476 548 21,300 -1,200 Descending Cleveland Center
Sat 03:23:09 PM 42.4917 -79.4061 91° East 476 548 20,100 -1,250 Descending Cleveland Center
Sat 03:24:09 PM 42.5169 -79.2367 79° East 471 542 18,800 -1,500 Descending Cleveland Center
Sat 03:25:09 PM 42.5969 -79.1222 46° Northeast 417 480 17,100 -1,650 Descending Cleveland Center
Sat 03:26:09 PM 42.6767 -79.0131 45° Northeast 404 465 15,500 -1,650 Descending Cleveland Center
Sat 03:27:09 PM 42.7481 -78.9067 48° Northeast 390 449 13,800 -1,550 Descending Cleveland Center
Sat 03:28:09 PM 42.8217 -78.8028 46° Northeast 379 436 12,400 -1,400 Descending Cleveland Center
Sat 03:29:09 PM 42.8931 -78.7017 46° Northeast 366 421 11,000 -1,080 Descending Cleveland Center
Sat 03:29:49 PM 42.9333 -78.6333 51° Northeast 331 381 10,600 -800 Descending Buffalo TRACON
Sat 03:30:09 PM 42.9414 -78.6008 71° East 344 396 10,200 -1,364 Descending Cleveland Center
Sat 03:30:33 PM 42.9467 -78.5553 81° East 320 368 9,600 -1,300 Descending Cleveland Center
Sat 03:31:09 PM 42.9603 -78.4953 73° East 315 362 8,900 -1,397 Descending Cleveland Center
Sat 03:31:46 PM 42.9733 -78.4125 78° East 307 353 7,900 -1,300 Descending Cleveland Center
Sat 03:32:09 PM 42.9831 -78.3725 72° East 304 350 7,600 -787 Descending Cleveland Center
Sat 03:32:47 PM 43.0092 -78.3147 58° Northeast 294 338 7,100 -367 Descending Cleveland Center
Sat 03:33:47 PM 43.0508 -78.2139 60° Northeast 294 338 7,000 -149 Descending Cleveland Center
Sat 03:34:48 PM 43.0903 -78.1156 61° Northeast 296 341 6,800 -1,041 Descending Cleveland Center
Sat 03:35:48 PM 43.1300 -78.0200 60° Northeast 290 334 4,900 -1,388 Descending Cleveland Center
Sat 03:36:49 PM 43.1694 -77.9244 60° Northeast 287 330 4,000 -443 Descending Cleveland Center
Sat 03:37:50 PM 43.2047 -77.8289 63° Northeast 283 326 4,000 50 Level Cleveland Center
Sat 03:38:50 PM 43.2211 -77.7258 78° East 263 303 4,100 -149 Climbing Cleveland Center
Sat 03:39:51 PM 43.2394 -77.6308 75° East 238 274 3,700 -738 Descending Cleveland Center
Sat 03:40:52 PM 43.2539 -77.5417 77° East 245 282 2,600 -574 Descending Cleveland Center
Sat 03:41:46 PM 43.2353 -77.4714 110° East 227 261 2,600  Level Cleveland Center
Sat 03:42:47 PM 43.1764 -77.4517 166° South 203 234 2,600  Level Cleveland Center

Login

Don't have an account? Register now (free) for customized features, flight alerts, and more!